createdAt,value
2023-05-02T00:01:23.566Z,68.71
2023-05-02T00:06:26.572Z,68.34
2023-05-02T00:11:30.710Z,69.74
2023-05-02T00:16:33.439Z,78.12
2023-05-02T00:21:36.171Z,82.54
2023-05-02T00:26:40.228Z,84.33
2023-05-02T00:31:43.286Z,85.14
2023-05-02T00:36:46.204Z,85.33
2023-05-02T00:41:50.535Z,84.21
2023-05-02T00:46:53.787Z,84.78
2023-05-02T00:51:56.686Z,85.68
2023-05-02T00:57:00.587Z,85.49
2023-05-02T01:02:20.756Z,86.29
2023-05-02T01:07:37.688Z,85.85
2023-05-02T01:12:44.399Z,86.18
2023-05-02T01:17:49.562Z,83.63
2023-05-02T01:22:53.497Z,82.70
2023-05-02T01:28:09.884Z,82.81
2023-05-02T01:33:17.497Z,80.58
2023-05-02T01:38:21.693Z,79.48
2023-05-02T01:43:27.051Z,78.50
2023-05-02T01:48:31.475Z,77.73
2023-05-02T01:53:36.838Z,78.60
2023-05-02T01:58:40.685Z,78.76
2023-05-02T02:03:46.099Z,79.89
2023-05-02T02:08:49.335Z,78.58
2023-05-02T02:13:59.900Z,77.30
2023-05-02T02:19:08.373Z,77.36
2023-05-02T02:24:13.640Z,77.43
2023-05-02T02:29:16.324Z,75.53
2023-05-02T02:34:21.096Z,75.61
2023-05-02T02:39:36.840Z,75.59
2023-05-02T02:44:48.486Z,76.17
2023-05-02T02:50:07.180Z,75.15
2023-05-02T02:55:14.102Z,75.09
2023-05-02T03:00:21.282Z,74.41
2023-05-02T03:05:26.340Z,75.45
2023-05-02T03:10:29.117Z,75.77
2023-05-02T03:16:13.543Z,76.36
2023-05-02T03:21:18.495Z,75.04
2023-05-02T03:26:22.432Z,75.19
2023-05-02T03:31:26.919Z,76.23
2023-05-02T03:36:31.776Z,75.58
2023-05-02T03:41:34.675Z,75.79
2023-05-02T03:46:43.061Z,75.61
2023-05-02T03:51:49.500Z,75.90
2023-05-02T03:56:58.106Z,74.76
2023-05-02T04:02:05.746Z,74.61
2023-05-02T04:07:19.319Z,76.42
2023-05-02T04:12:26.567Z,79.45
2023-05-02T04:17:30.071Z,79.82
2023-05-02T04:22:34.431Z,79.43
2023-05-02T04:27:40.795Z,79.39
2023-05-02T04:32:47.982Z,79.56
2023-05-02T04:37:52.639Z,79.89
2023-05-02T04:42:55.666Z,82.13
2023-05-02T04:48:01.106Z,82.43
2023-05-02T04:53:05.480Z,82.20
2023-05-02T04:58:09.843Z,81.94
2023-05-02T05:03:12.864Z,83.15
2023-05-02T05:08:17.211Z,84.89
2023-05-02T05:13:20.028Z,89.73
2023-05-02T05:18:24.962Z,87.68
2023-05-02T05:23:29.232Z,87.73
2023-05-02T05:28:32.187Z,88.32
2023-05-02T05:33:35.248Z,87.47
2023-05-02T05:38:40.518Z,87.27
2023-05-02T05:43:45.420Z,87.19
2023-05-02T05:48:48.708Z,86.35
2023-05-02T05:53:53.339Z,85.57
2023-05-02T05:58:56.224Z,86.12
2023-05-02T06:03:59.266Z,86.11
2023-05-02T06:09:04.220Z,86.30
2023-05-02T06:14:08.599Z,86.18
2023-05-02T06:19:12.291Z,86.16
2023-05-02T06:24:16.935Z,86.07
2023-05-02T06:29:19.795Z,85.95
2023-05-02T06:34:22.521Z,85.79
2023-05-02T06:39:26.650Z,85.55
2023-05-02T06:44:29.544Z,85.99
2023-05-02T06:49:32.342Z,85.71
2023-05-02T06:54:36.504Z,85.05
2023-05-02T06:59:39.241Z,85.11
2023-05-02T07:04:42.069Z,84.34
2023-05-02T07:09:46.236Z,83.66
2023-05-02T07:14:49.034Z,80.63
2023-05-02T07:19:51.782Z,79.68
2023-05-02T07:25:00.162Z,77.97
2023-05-02T07:30:03.372Z,77.22
2023-05-02T07:35:07.274Z,74.65
2023-05-02T07:40:12.131Z,72.95
2023-05-02T07:45:14.881Z,73.21
2023-05-02T07:50:17.792Z,73.37
2023-05-02T07:55:22.197Z,74.59
2023-05-02T08:00:25.023Z,71.89
2023-05-02T08:05:27.953Z,69.96
2023-05-02T08:10:32.055Z,71.95
2023-05-02T08:15:35.206Z,69.78
2023-05-02T08:20:38.142Z,71.31
2023-05-02T08:25:43.534Z,70.68
2023-05-02T08:30:46.408Z,72.17
2023-05-02T08:35:49.380Z,69.55
2023-05-02T08:40:53.544Z,68.83
2023-05-02T08:46:00.814Z,69.65
2023-05-02T08:51:03.993Z,71.59
2023-05-02T08:56:10.325Z,68.16
2023-05-02T09:01:16.430Z,67.06
2023-05-02T09:06:21.328Z,60.17
2023-05-02T09:11:25.647Z,61.95
2023-05-02T09:16:29.419Z,60.93
2023-05-02T09:21:38.032Z,61.19
2023-05-02T09:26:42.221Z,60.59
2023-05-02T09:31:55.456Z,60.43
2023-05-02T09:36:59.346Z,60.52
2023-05-02T09:42:04.066Z,61.59
2023-05-02T09:47:08.980Z,55.60
2023-05-02T09:52:12.952Z,59.82
2023-05-02T09:57:17.172Z,55.88
2023-05-02T10:02:21.878Z,57.49
2023-05-02T10:07:26.010Z,55.75
2023-05-02T10:12:31.684Z,53.94
2023-05-02T10:17:42.177Z,54.90
2023-05-02T10:22:47.049Z,51.11
2023-05-02T10:27:51.353Z,51.87
2023-05-02T10:32:54.985Z,51.36
2023-05-02T10:37:58.777Z,51.62
2023-05-02T10:43:05.480Z,50.83
2023-05-02T10:48:18.835Z,51.35
2023-05-02T10:53:29.951Z,50.46
2023-05-02T10:58:34.271Z,49.59
2023-05-02T11:03:57.376Z,48.46
2023-05-02T11:09:31.545Z,49.00
2023-05-02T11:14:47.458Z,48.45
2023-05-02T11:20:30.060Z,44.86
2023-05-02T11:25:38.094Z,45.12
2023-05-02T11:30:44.208Z,46.26
2023-05-02T11:35:48.851Z,42.16
2023-05-02T11:40:56.734Z,40.99
2023-05-02T11:46:02.602Z,38.77
2023-05-02T11:51:07.193Z,40.98
2023-05-02T11:56:10.158Z,40.48
2023-05-02T12:01:17.424Z,41.45
2023-05-02T12:06:20.690Z,43.60
2023-05-02T12:11:24.777Z,42.03
2023-05-02T12:16:29.127Z,43.50
2023-05-02T12:21:32.917Z,43.08
2023-05-02T12:26:35.830Z,41.75
2023-05-02T12:31:40.032Z,43.54
2023-05-02T12:36:45.302Z,43.12
2023-05-02T12:41:48.139Z,40.79
2023-05-02T12:47:01.988Z,38.97
2023-05-02T12:52:05.160Z,40.41
2023-05-02T12:57:09.182Z,39.00
2023-05-02T13:02:13.460Z,40.86
2023-05-02T13:07:16.236Z,40.05
2023-05-02T13:12:19.097Z,40.32
2023-05-02T13:17:23.308Z,39.76
2023-05-02T13:22:26.324Z,38.49
2023-05-02T13:27:29.112Z,37.39
2023-05-02T13:32:33.373Z,34.40
2023-05-02T13:37:36.150Z,38.82
2023-05-02T13:42:38.906Z,38.57
2023-05-02T13:47:43.083Z,39.25
2023-05-02T13:52:48.354Z,40.70
2023-05-02T13:57:51.871Z,41.04
2023-05-02T14:02:56.174Z,39.22
2023-05-02T14:07:58.986Z,39.82
2023-05-02T14:13:01.705Z,40.68
2023-05-02T14:18:05.903Z,39.14
2023-05-02T14:23:08.729Z,37.98
2023-05-02T14:28:11.454Z,39.12
2023-05-02T14:33:15.837Z,39.57
2023-05-02T14:38:18.580Z,39.08
2023-05-02T14:43:22.407Z,38.55
2023-05-02T14:48:26.791Z,38.86
2023-05-02T14:53:29.731Z,40.08
2023-05-02T14:58:32.506Z,40.53
2023-05-02T15:03:49.094Z,39.78
2023-05-02T15:08:59.352Z,39.70
2023-05-02T15:14:02.126Z,38.21
2023-05-02T15:19:06.339Z,38.14
2023-05-02T15:24:09.302Z,39.72
2023-05-02T15:29:12.094Z,39.55
2023-05-02T15:34:16.499Z,39.56
2023-05-02T15:39:19.292Z,39.21
2023-05-02T15:44:22.319Z,41.04
2023-05-02T15:49:31.570Z,40.16
2023-05-02T15:54:34.410Z,40.43
2023-05-02T15:59:37.143Z,39.88
2023-05-02T16:04:43.037Z,40.68
2023-05-02T16:09:46.283Z,39.94
2023-05-02T16:14:49.081Z,39.51
2023-05-02T16:19:53.238Z,40.83
2023-05-02T16:24:56.025Z,40.84
2023-05-02T16:30:00.089Z,41.32
2023-05-02T16:35:07.261Z,41.35
2023-05-02T16:40:11.208Z,41.46
2023-05-02T16:45:14.620Z,41.02
2023-05-02T16:50:18.807Z,40.91
2023-05-02T16:55:21.868Z,41.02
2023-05-02T17:00:24.869Z,41.00
2023-05-02T17:05:29.170Z,41.83
2023-05-02T17:10:32.249Z,43.05
2023-05-02T17:15:39.097Z,43.40
2023-05-02T17:20:43.458Z,43.24
2023-05-02T17:25:46.837Z,44.16
2023-05-02T17:30:54.384Z,42.96
2023-05-02T17:35:58.744Z,42.89
2023-05-02T17:41:03.902Z,43.25
2023-05-02T17:46:10.170Z,43.21
2023-05-02T17:51:14.438Z,43.93
2023-05-02T17:56:18.715Z,44.20
2023-05-02T18:01:21.611Z,44.33
2023-05-02T18:06:27.441Z,44.85
2023-05-02T18:11:32.036Z,45.35
2023-05-02T18:16:36.241Z,45.17
2023-05-02T18:21:40.808Z,45.26
2023-05-02T18:26:43.717Z,45.50
2023-05-02T18:31:52.630Z,45.69
2023-05-02T18:36:59.904Z,46.39
2023-05-02T18:42:04.045Z,46.20
2023-05-02T18:47:06.896Z,46.66
2023-05-02T18:52:11.053Z,47.24
2023-05-02T18:57:14.101Z,47.94
2023-05-02T19:02:16.967Z,48.00
2023-05-02T19:07:21.103Z,48.39
2023-05-02T19:12:23.862Z,48.92
2023-05-02T19:17:26.785Z,48.90
2023-05-02T19:22:33.658Z,49.56
2023-05-02T19:27:36.499Z,49.13
2023-05-02T19:32:39.284Z,49.15
2023-05-02T19:37:43.995Z,49.07
2023-05-02T19:42:46.787Z,49.39
2023-05-02T19:47:49.577Z,49.22
2023-05-02T19:52:53.692Z,49.47
2023-05-02T19:57:56.490Z,49.12
2023-05-02T20:02:59.553Z,49.17
2023-05-02T20:08:03.734Z,49.54
2023-05-02T20:13:06.712Z,49.28
2023-05-02T20:18:09.558Z,49.50
2023-05-02T20:23:14.148Z,49.93
2023-05-02T20:28:17.043Z,50.01
2023-05-02T20:33:20.012Z,49.96
2023-05-02T20:38:24.743Z,49.95
2023-05-02T20:43:28.915Z,50.36
2023-05-02T20:48:31.632Z,50.37
2023-05-02T20:53:36.638Z,50.55
2023-05-02T20:58:39.326Z,50.88
2023-05-02T21:03:42.050Z,51.58
2023-05-02T21:08:46.278Z,52.35
2023-05-02T21:13:48.972Z,51.79
2023-05-02T21:18:51.560Z,51.75
2023-05-02T21:23:56.049Z,51.83
2023-05-02T21:28:58.880Z,51.83
2023-05-02T21:34:02.983Z,52.09
2023-05-02T21:39:07.793Z,52.55
2023-05-02T21:44:13.870Z,52.87
2023-05-02T21:49:17.055Z,53.53
2023-05-02T21:54:21.717Z,53.86
2023-05-02T21:59:24.773Z,54.25
2023-05-02T22:04:31.509Z,54.82
2023-05-02T22:09:36.224Z,55.34
2023-05-02T22:14:45.265Z,55.63
2023-05-02T22:19:49.449Z,55.94
2023-05-02T22:24:53.575Z,56.14
2023-05-02T22:29:56.549Z,56.24
2023-05-02T22:34:59.369Z,56.70
2023-05-02T22:40:03.840Z,56.97
2023-05-02T22:45:09.533Z,57.15
2023-05-02T22:50:13.071Z,57.08
2023-05-02T22:55:17.460Z,57.59
2023-05-02T23:00:22.507Z,57.79
2023-05-02T23:05:25.274Z,57.81
2023-05-02T23:10:29.451Z,58.26
2023-05-02T23:15:32.226Z,58.68
2023-05-02T23:20:35.227Z,58.94
2023-05-02T23:25:39.988Z,59.00
2023-05-02T23:30:42.756Z,59.24
2023-05-02T23:35:45.489Z,59.51
2023-05-02T23:40:49.682Z,59.55
2023-05-02T23:45:52.433Z,59.73
2023-05-02T23:50:55.167Z,60.07
2023-05-02T23:56:00.191Z,60.41
